Time;durP1;ratioP1;P1;durP2;ratioP2;P2;SDS_P1;SDS_P2;PMS_P1;PMS_P2;Temp;Humidity;BMP_temperature;BMP_pressure;BME280_temperature;BME280_humidity;BME280_pressure;Samples;Min_cycle;Max_cycle;Signal;HPM_P1;HPM_P2
2023/06/23 00:01:45;;;;;;;13.07;8.38;;;17.10;99.90;;;;;;4894125;29;38838;-82
2023/06/23 00:04:11;;;;;;;9.63;7.97;;;17.10;99.90;;;;;;4894340;29;39336;-80
2023/06/23 00:06:41;;;;;;;11.40;7.47;;;17.10;99.90;;;;;;4889011;29;37054;-80
2023/06/23 00:09:13;;;;;;;13.50;8.48;;;17.10;99.90;;;;;;4873585;29;36681;-81
2023/06/23 00:11:42;;;;;;;;;;;17.10;99.90;;;;;;4879949;29;36258;-80
2023/06/23 00:14:11;;;;;;;11.25;8.52;;;17.10;99.90;;;;;;4880106;29;37896;-81
2023/06/23 00:16:37;;;;;;;12.40;8.52;;;17.10;99.90;;;;;;4897392;29;39677;-80
2023/06/23 00:19:04;;;;;;;10.32;7.97;;;17.00;99.90;;;;;;4892717;29;39169;-81
2023/06/23 00:21:33;;;;;;;14.32;8.68;;;17.00;99.90;;;;;;4876978;29;37654;-81
2023/06/23 00:23:59;;;;;;;13.27;8.18;;;17.00;99.90;;;;;;4890948;29;39197;-80
2023/06/23 00:26:25;;;;;;;10.38;7.75;;;17.00;99.90;;;;;;4872912;29;37083;-80
2023/06/23 00:28:51;;;;;;;12.30;9.07;;;17.00;99.90;;;;;;4879077;29;39856;-80
2023/06/23 00:31:17;;;;;;;13.95;10.50;;;17.00;99.90;;;;;;4873335;29;35843;-80
2023/06/23 00:33:44;;;;;;;17.35;11.45;;;17.00;99.90;;;;;;4890947;29;39222;-80
2023/06/23 00:36:10;;;;;;;19.33;13.45;;;17.00;99.90;;;;;;4874135;29;37255;-80
2023/06/23 00:38:36;;;;;;;16.48;11.88;;;17.00;99.90;;;;;;4890514;29;38702;-81
2023/06/23 00:41:03;;;;;;;18.25;12.13;;;17.00;99.90;;;;;;4863193;29;36574;-80
2023/06/23 00:43:30;;;;;;;22.23;15.18;;;17.00;99.90;;;;;;4889542;29;38708;-81
2023/06/23 00:46:14;;;;;;;23.35;15.48;;;16.90;99.90;;;;;;4879589;29;37363;-80
2023/06/23 00:48:40;;;;;;;23.23;17.75;;;16.90;99.90;;;;;;4875646;29;48148;-80
2023/06/23 00:51:06;;;;;;;22.83;17.55;;;16.90;99.90;;;;;;4889723;29;38093;-80
2023/06/23 00:53:33;;;;;;;25.63;20.17;;;16.90;99.90;;;;;;4874420;29;37435;-81
2023/06/23 00:55:59;;;;;;;25.42;20.83;;;16.90;99.90;;;;;;4874613;29;37023;-80
2023/06/23 00:58:27;;;;;;;26.27;22.55;;;16.90;99.90;;;;;;4878466;29;37164;-81
2023/06/23 01:03:31;;;;;;;37.33;28.33;;;16.90;99.90;;;;;;4980129;23;20393;-78
2023/06/23 01:06:02;;;;;;;37.75;30.13;;;16.90;99.90;;;;;;4849310;29;37253;-78
2023/06/23 01:08:39;;;;;;;37.30;29.63;;;17.00;99.90;;;;;;4846678;29;47355;-78
2023/06/23 01:11:09;;;;;;;41.08;34.15;;;17.00;99.90;;;;;;4844738;29;37595;-78
2023/06/23 01:14:02;;;;;;;41.15;34.40;;;17.00;99.90;;;;;;4849252;29;40373;-78
2023/06/23 01:16:30;;;;;;;42.45;34.88;;;17.00;99.90;;;;;;4848991;29;47097;-78
2023/06/23 01:19:27;;;;;;;43.30;37.47;;;17.00;99.90;;;;;;4854892;29;38848;-79
2023/06/23 01:22:18;;;;;;;47.47;37.10;;;17.00;99.90;;;;;;4854327;29;47347;-79
2023/06/23 01:25:24;;;;;;;56.47;41.35;;;17.00;99.90;;;;;;4851541;29;47013;-77
2023/06/23 01:28:32;;;;;;;49.08;40.63;;;16.90;99.90;;;;;;4842739;29;47407;-78
2023/06/23 01:31:01;;;;;;;51.50;39.72;;;16.90;99.90;;;;;;4867733;29;48247;-78
2023/06/23 01:33:37;;;;;;;73.07;52.03;;;16.90;99.90;;;;;;4846925;29;47284;-78
2023/06/23 01:36:09;;;;;;;77.28;53.85;;;17.00;99.90;;;;;;4866103;29;39600;-78
2023/06/23 01:38:40;;;;;;;65.28;49.45;;;16.90;99.90;;;;;;4858001;29;39319;-78
2023/06/23 01:41:11;;;;;;;61.60;48.47;;;16.90;99.90;;;;;;4854662;29;37259;-79
2023/06/23 01:43:41;;;;;;;77.32;56.28;;;17.00;99.90;;;;;;4874216;29;37820;-77
2023/06/23 01:46:15;;;;;;;60.65;48.88;;;16.90;99.90;;;;;;4855333;29;40667;-79
2023/06/23 01:48:47;;;;;;;57.70;44.83;;;16.90;99.90;;;;;;4872366;29;39942;-77
2023/06/23 01:51:14;;;;;;;64.50;49.15;;;16.90;99.90;;;;;;4888543;29;39302;-78
2023/06/23 01:53:41;;;;;;;78.00;53.85;;;16.90;99.90;;;;;;4869590;29;37261;-76
2023/06/23 01:56:11;;;;;;;61.95;49.28;;;16.90;99.90;;;;;;4866682;29;38969;-77
2023/06/23 01:58:39;;;;;;;65.05;49.63;;;16.90;99.90;;;;;;4878183;29;38919;-76
2023/06/23 02:01:07;;;;;;;68.70;51.88;;;16.90;99.90;;;;;;4879831;29;38221;-77
2023/06/23 02:03:33;;;;;;;76.45;54.38;;;16.90;99.90;;;;;;4856193;29;38665;-78
2023/06/23 02:06:01;;;;;;;72.47;52.63;;;16.90;99.90;;;;;;4857159;29;40559;-78
2023/06/23 02:08:29;;;;;;;64.47;48.85;;;16.90;99.90;;;;;;4856161;29;46777;-78
2023/06/23 02:10:56;;;;;;;61.28;48.08;;;16.80;99.90;;;;;;4862226;29;39058;-77
2023/06/23 02:13:25;;;;;;;62.85;48.15;;;16.80;99.90;;;;;;4871519;29;37239;-78
2023/06/23 02:15:53;;;;;;;67.60;50.33;;;16.80;99.90;;;;;;4871050;29;39082;-79
2023/06/23 02:18:20;;;;;;;59.25;46.85;;;16.90;99.90;;;;;;4876524;29;39267;-79
2023/06/23 02:20:48;;;;;;;66.22;52.22;;;16.80;99.90;;;;;;4878801;29;38138;-77
2023/06/23 02:23:15;;;;;;;79.95;58.80;;;16.80;99.90;;;;;;4861159;29;38060;-77
2023/06/23 02:25:43;;;;;;;70.38;54.88;;;16.90;99.90;;;;;;4854668;29;37648;-77
2023/06/23 02:28:11;;;;;;;67.93;53.33;;;16.90;99.90;;;;;;4863710;29;39199;-78
2023/06/23 02:30:39;;;;;;;81.82;60.40;;;16.80;99.90;;;;;;4872880;29;38172;-78
2023/06/23 02:33:06;;;;;;;67.22;52.88;;;16.80;99.90;;;;;;4853075;29;39179;-79
2023/06/23 02:35:33;;;;;;;66.20;54.80;;;16.80;99.90;;;;;;4862617;29;38653;-79
2023/06/23 02:38:04;;;;;;;71.30;56.25;;;16.80;99.90;;;;;;4872551;29;39292;-78
2023/06/23 02:40:34;;;;;;;74.03;59.20;;;16.80;99.90;;;;;;4880653;29;49601;-79
2023/06/23 02:43:08;;;;;;;69.93;56.17;;;16.70;99.90;;;;;;4863773;29;37972;-79
2023/06/23 02:45:42;;;;;;;65.55;54.35;;;16.60;99.90;;;;;;4853905;29;47323;-77
2023/06/23 02:48:15;;;;;;;64.28;52.88;;;16.60;99.90;;;;;;4865458;29;40089;-76
2023/06/23 02:50:43;;;;;;;72.68;57.28;;;16.60;99.90;;;;;;4877437;29;38798;-77
2023/06/23 02:53:22;;;;;;;67.45;55.72;;;16.60;99.90;;;;;;4872576;29;38544;-78
2023/06/23 02:55:53;;;;;;;74.93;56.53;;;16.60;99.90;;;;;;4884467;29;38733;-78
2023/06/23 02:58:22;;;;;;;65.30;53.50;;;16.60;99.90;;;;;;4858711;29;39160;-79
2023/06/23 03:00:50;;;;;;;58.58;49.08;;;16.60;99.90;;;;;;4867263;29;38719;-79
2023/06/23 03:03:16;;;;;;;61.42;51.08;;;16.50;99.90;;;;;;4862683;29;39045;-78
2023/06/23 03:05:43;;;;;;;60.65;50.30;;;16.50;99.90;;;;;;4872158;29;39657;-79
2023/06/23 03:08:09;;;;;;;61.28;50.17;;;16.50;99.90;;;;;;4850297;29;39830;-78
2023/06/23 03:10:35;;;;;;;66.97;54.08;;;16.40;99.90;;;;;;4844000;29;38959;-78
2023/06/23 03:13:02;;;;;;;65.50;54.10;;;16.40;99.90;;;;;;4865470;29;36122;-79
2023/06/23 03:15:29;;;;;;;64.82;54.30;;;16.40;99.90;;;;;;4846033;29;39407;-79
2023/06/23 03:18:09;;;;;;;63.13;52.13;;;16.30;99.90;;;;;;4846209;29;39347;-79
2023/06/23 03:20:47;;;;;;;66.43;53.88;;;16.30;99.90;;;;;;4855894;29;46300;-77
2023/06/23 03:23:15;;;;;;;67.40;54.63;;;16.30;99.90;;;;;;4856792;29;38226;-78
2023/06/23 03:25:46;;;;;;;61.63;51.88;;;16.20;99.90;;;;;;4859764;29;40417;-77
2023/06/23 03:28:17;;;;;;;63.08;51.33;;;16.20;99.90;;;;;;4883087;29;39619;-77
2023/06/23 03:30:50;;;;;;;69.70;52.20;;;16.20;99.90;;;;;;4863697;29;38914;-78
2023/06/23 03:33:24;;;;;;;56.97;48.35;;;16.20;99.90;;;;;;4856202;29;38193;-78
2023/06/23 03:35:55;;;;;;;58.58;49.55;;;16.20;99.90;;;;;;4853886;29;39151;-78
2023/06/23 03:38:23;;;;;;;57.67;48.10;;;16.20;99.90;;;;;;4862354;29;39054;-78
2023/06/23 03:41:00;;;;;;;64.15;50.40;;;16.20;99.90;;;;;;4862912;29;38859;-77
2023/06/23 03:43:37;;;;;;;58.88;48.22;;;16.20;99.90;;;;;;4869653;29;20124;-78
2023/06/23 03:46:23;;;;;;;59.25;46.90;;;16.10;99.90;;;;;;4874111;29;40190;-77
2023/06/23 03:48:54;;;;;;;55.83;45.67;;;16.10;99.90;;;;;;4859078;29;37168;-77
2023/06/23 03:51:21;;;;;;;54.30;43.20;;;16.10;99.90;;;;;;4857935;29;38126;-77
2023/06/23 03:53:50;;;;;;;51.83;41.83;;;16.10;99.90;;;;;;4864822;29;38258;-77
2023/06/23 03:56:18;;;;;;;49.22;40.97;;;16.10;99.90;;;;;;4857953;29;39644;-78
2023/06/23 03:58:48;;;;;;;53.97;41.05;;;16.10;99.90;;;;;;4854635;29;37231;-78
2023/06/23 04:01:16;;;;;;;47.17;36.25;;;16.20;99.90;;;;;;4858455;29;38813;-76
2023/06/23 04:03:44;;;;;;;42.33;35.25;;;16.20;99.90;;;;;;4874532;29;37599;-77
2023/06/23 04:06:13;;;;;;;37.60;32.67;;;16.30;99.90;;;;;;4872143;29;39052;-78
2023/06/23 04:08:40;;;;;;;42.90;34.88;;;16.30;99.90;;;;;;4863348;29;39139;-77
2023/06/23 04:11:09;;;;;;;43.90;33.88;;;16.30;99.90;;;;;;4858869;29;38420;-77
2023/06/23 04:13:37;;;;;;;41.67;34.38;;;16.30;99.90;;;;;;4874617;29;38360;-78
2023/06/23 04:16:06;;;;;;;44.97;33.70;;;16.30;99.90;;;;;;4854259;29;39673;-79
2023/06/23 04:18:35;;;;;;;38.50;32.20;;;16.40;99.90;;;;;;4876499;29;38385;-77
2023/06/23 04:21:03;;;;;;;36.13;28.42;;;16.40;99.90;;;;;;4877991;29;38003;-78
2023/06/23 04:23:31;;;;;;;33.13;27.67;;;16.40;99.90;;;;;;4858224;29;38341;-77
2023/06/23 04:25:59;;;;;;;30.95;24.63;;;16.50;99.90;;;;;;4859937;29;39609;-78
2023/06/23 04:28:28;;;;;;;30.00;25.60;;;16.60;99.90;;;;;;4861024;29;38686;-78
2023/06/23 04:30:58;;;;;;;34.45;25.63;;;16.70;99.90;;;;;;4855701;29;39016;-76
2023/06/23 04:33:24;;;;;;;32.95;24.77;;;16.70;99.90;;;;;;4870315;29;37732;-77
2023/06/23 04:35:57;;;;;;;30.80;26.30;;;16.80;99.90;;;;;;4859674;29;40301;-77
2023/06/23 04:38:28;;;;;;;37.28;28.80;;;16.90;99.90;;;;;;4867369;29;38621;-77
2023/06/23 04:40:58;;;;;;;33.47;26.00;;;16.90;99.90;;;;;;4859191;29;38842;-77
2023/06/23 04:43:36;;;;;;;33.53;26.92;;;17.00;99.90;;;;;;4857788;29;36298;-77
2023/06/23 04:46:13;;;;;;;43.88;32.63;;;17.00;99.90;;;;;;4859383;29;40624;-77
2023/06/23 04:48:45;;;;;;;33.72;28.85;;;17.10;99.90;;;;;;4858746;29;39249;-78
2023/06/23 04:51:14;;;;;;;37.50;29.20;;;17.00;99.90;;;;;;4876345;29;38011;-78
2023/06/23 04:53:48;;;;;;;39.70;31.02;;;17.10;99.90;;;;;;4875260;29;37507;-77
2023/06/23 04:56:19;;;;;;;44.05;31.73;;;17.10;99.90;;;;;;4861930;29;37716;-78
2023/06/23 04:58:55;;;;;;;40.30;30.40;;;17.00;99.90;;;;;;4855132;29;39101;-78
2023/06/23 05:01:22;;;;;;;41.72;34.58;;;17.00;99.90;;;;;;4878582;29;38232;-78
2023/06/23 05:03:51;;;;;;;40.42;34.47;;;17.00;99.90;;;;;;4865289;29;37131;-77
2023/06/23 05:06:20;;;;;;;46.88;35.53;;;17.10;99.90;;;;;;4858247;29;38963;-79
2023/06/23 05:08:48;;;;;;;54.90;39.85;;;17.20;99.90;;;;;;4846875;29;39059;-77
2023/06/23 05:11:16;;;;;;;45.53;35.63;;;17.20;99.90;;;;;;4851858;29;37853;-78
2023/06/23 05:13:44;;;;;;;48.33;36.05;;;17.20;99.90;;;;;;4848540;29;36309;-77
2023/06/23 05:16:12;;;;;;;48.70;37.92;;;17.30;99.90;;;;;;4851332;29;38811;-77
2023/06/23 05:18:40;;;;;;;50.35;37.70;;;17.50;99.90;;;;;;4857194;29;39449;-78
2023/06/23 05:21:07;;;;;;;39.25;32.20;;;17.60;99.90;;;;;;4860274;29;38273;-77
2023/06/23 05:23:36;;;;;;;41.72;32.08;;;17.70;99.90;;;;;;4851684;29;38430;-77
2023/06/23 05:26:06;;;;;;;38.92;31.73;;;17.80;99.90;;;;;;4847349;29;39314;-78
2023/06/23 05:28:37;;;;;;;37.25;30.50;;;17.90;99.90;;;;;;4852724;29;38041;-78
2023/06/23 05:31:06;;;;;;;35.90;28.83;;;17.90;99.90;;;;;;4854527;29;38699;-77
2023/06/23 05:33:36;;;;;;;37.22;29.80;;;18.10;99.90;;;;;;4849774;29;39364;-78
2023/06/23 05:36:04;;;;;;;33.40;27.52;;;18.20;99.90;;;;;;4851955;29;39870;-79
2023/06/23 05:38:30;;;;;;;35.38;28.70;;;18.30;99.90;;;;;;4853964;29;39746;-78
2023/06/23 05:40:57;;;;;;;35.38;27.20;;;18.50;99.90;;;;;;4851703;29;38301;-78
2023/06/23 05:43:23;;;;;;;28.85;24.50;;;18.70;99.90;;;;;;4854011;29;39032;-78
2023/06/23 05:45:53;;;;;;;29.63;25.20;;;18.90;99.90;;;;;;4850660;29;40468;-78
2023/06/23 05:48:27;;;;;;;30.52;23.55;;;19.10;99.90;;;;;;4870308;29;39012;-77
2023/06/23 05:50:56;;;;;;;28.40;22.30;;;19.20;99.90;;;;;;4852427;29;39969;-78
2023/06/23 05:53:25;;;;;;;26.13;21.05;;;19.30;99.90;;;;;;4855672;29;39108;-79
2023/06/23 05:56:00;;;;;;;27.23;21.48;;;19.50;99.90;;;;;;4851348;29;40660;-78
2023/06/23 05:58:31;;;;;;;27.52;21.08;;;19.60;99.90;;;;;;4855300;29;38265;-78
2023/06/23 06:01:00;;;;;;;27.30;20.60;;;19.70;99.90;;;;;;4848030;29;39865;-78
2023/06/23 06:03:35;;;;;;;26.55;21.38;;;19.90;99.90;;;;;;4862977;29;47264;-78
2023/06/23 06:06:04;;;;;;;24.55;18.98;;;19.90;99.90;;;;;;4856834;29;39987;-79
2023/06/23 06:08:33;;;;;;;22.20;18.42;;;19.80;99.90;;;;;;4872082;29;38459;-79
2023/06/23 06:11:01;;;;;;;20.98;18.42;;;19.90;99.90;;;;;;4851831;29;37327;-78
2023/06/23 06:13:34;;;;;;;26.88;21.67;;;20.00;99.90;;;;;;4853482;29;47236;-77
2023/06/23 06:16:00;;;;;;;24.73;19.45;;;20.10;99.90;;;;;;4852379;29;38396;-77
2023/06/23 06:18:28;;;;;;;21.73;17.85;;;20.20;99.90;;;;;;4861323;29;37768;-78
2023/06/23 06:20:58;;;;;;;20.85;17.33;;;20.40;99.90;;;;;;4872312;29;38423;-79
2023/06/23 06:23:25;;;;;;;17.65;15.23;;;20.50;99.90;;;;;;4868892;29;38803;-77
2023/06/23 06:25:54;;;;;;;19.45;16.15;;;20.60;99.90;;;;;;4854185;29;39593;-78
2023/06/23 06:28:22;;;;;;;17.27;14.50;;;20.70;99.90;;;;;;4853717;29;37878;-77
2023/06/23 06:30:50;;;;;;;17.75;14.52;;;20.70;99.90;;;;;;4854340;29;38635;-78
2023/06/23 06:33:18;;;;;;;17.80;14.73;;;20.80;99.90;;;;;;4874723;29;37876;-79
2023/06/23 06:35:47;;;;;;;22.10;17.00;;;20.90;99.90;;;;;;4855223;29;39575;-77
2023/06/23 06:38:15;;;;;;;18.20;15.25;;;21.10;99.90;;;;;;4854493;29;37612;-78
2023/06/23 06:40:46;;;;;;;16.27;13.65;;;21.10;99.90;;;;;;4856917;29;40207;-79
2023/06/23 06:43:12;;;;;;;19.05;16.05;;;21.30;99.90;;;;;;4876975;29;35650;-78
2023/06/23 06:45:39;;;;;;;17.20;12.80;;;21.40;99.90;;;;;;4854855;29;40175;-78
2023/06/23 06:48:07;;;;;;;16.30;13.43;;;21.40;99.90;;;;;;4867193;29;39178;-78
2023/06/23 06:50:34;;;;;;;17.02;13.95;;;21.40;99.90;;;;;;4858862;29;39039;-77
2023/06/23 06:53:01;;;;;;;16.15;12.85;;;21.50;99.90;;;;;;4868568;29;37518;-76
2023/06/23 06:55:28;;;;;;;16.58;12.82;;;21.50;99.90;;;;;;4851628;29;39248;-77
2023/06/23 06:57:56;;;;;;;14.52;12.43;;;21.70;99.90;;;;;;4855483;29;39179;-77
2023/06/23 07:00:22;;;;;;;12.40;10.18;;;21.90;99.90;;;;;;4852114;29;39994;-77
2023/06/23 07:02:50;;;;;;;10.45;9.15;;;22.00;99.90;;;;;;4864719;29;38227;-78
2023/06/23 07:05:20;;;;;;;11.52;8.70;;;22.20;99.90;;;;;;4850428;29;39570;-77
2023/06/23 07:07:46;;;;;;;9.98;8.18;;;22.40;96.60;;;;;;4863221;29;40535;-78
2023/06/23 07:10:12;;;;;;;9.32;8.15;;;22.60;89.60;;;;;;4863420;29;38827;-78
2023/06/23 07:12:39;;;;;;;9.43;8.43;;;22.70;83.40;;;;;;4861901;29;37858;-78
2023/06/23 07:15:07;;;;;;;10.50;8.82;;;22.70;93.00;;;;;;4869344;29;38907;-79
2023/06/23 07:17:33;;;;;;;8.38;7.43;;;22.70;85.50;;;;;;4849923;29;39223;-77
2023/06/23 07:19:59;;;;;;;9.75;7.25;;;22.70;93.40;;;;;;4845714;29;38848;-77
2023/06/23 07:22:26;;;;;;;8.30;6.90;;;22.80;71.20;;;;;;4849052;29;38234;-77
2023/06/23 07:24:55;;;;;;;8.68;6.20;;;22.70;68.60;;;;;;4857147;29;38571;-78
2023/06/23 07:27:21;;;;;;;6.40;5.80;;;22.90;69.30;;;;;;4853701;29;40503;-77
2023/06/23 07:29:47;;;;;;;6.10;5.40;;;22.90;82.00;;;;;;4859458;29;38967;-77
2023/06/23 07:32:17;;;;;;;6.57;5.90;;;22.90;91.40;;;;;;4849979;29;36343;-77
2023/06/23 07:34:43;;;;;;;6.53;5.18;;;23.00;75.90;;;;;;4872075;29;38929;-77
2023/06/23 07:37:09;;;;;;;7.57;5.80;;;23.30;69.90;;;;;;4867468;29;38910;-79
2023/06/23 07:39:36;;;;;;;8.65;6.00;;;23.30;55.00;;;;;;4848850;29;39347;-79
2023/06/23 07:42:03;;;;;;;6.53;5.35;;;23.20;62.80;;;;;;4856879;29;36118;-79
2023/06/23 07:44:31;;;;;;;7.90;5.88;;;23.30;69.20;;;;;;4865771;29;39115;-78
2023/06/23 07:46:58;;;;;;;11.50;5.38;;;23.50;51.60;;;;;;4869347;29;38582;-78
2023/06/23 07:49:26;;;;;;;6.35;3.92;;;23.80;37.90;;;;;;4851459;29;40109;-78
2023/06/23 07:51:52;;;;;;;6.65;4.35;;;23.60;48.10;;;;;;4865355;29;37152;-78
2023/06/23 07:54:18;;;;;;;6.93;5.47;;;23.80;29.40;;;;;;4847564;29;38250;-78
2023/06/23 07:56:44;;;;;;;7.38;3.92;;;23.80;41.90;;;;;;4859116;29;38969;-78
2023/06/23 07:59:11;;;;;;;9.07;4.15;;;23.80;41.60;;;;;;4867003;29;39137;-78
2023/06/23 08:01:37;;;;;;;8.38;4.63;;;23.90;43.10;;;;;;4848739;29;38041;-77
2023/06/23 08:04:03;;;;;;;6.78;4.30;;;23.90;29.20;;;;;;4872066;29;38690;-79
2023/06/23 08:06:30;;;;;;;10.57;4.90;;;23.80;54.10;;;;;;4854496;29;40050;-77
2023/06/23 08:08:56;;;;;;;7.25;4.75;;;24.00;50.10;;;;;;4854362;29;38528;-78
2023/06/23 08:11:22;;;;;;;5.78;4.28;;;24.10;37.10;;;;;;4873072;29;38248;-76
2023/06/23 08:13:50;;;;;;;5.35;4.47;;;24.10;21.30;;;;;;4854729;29;38048;-78
2023/06/23 08:16:16;;;;;;;4.82;3.58;;;24.10;30.70;;;;;;4869567;29;38645;-77
2023/06/23 08:18:42;;;;;;;7.85;5.63;;;24.10;21.40;;;;;;4872553;29;38049;-77
2023/06/23 08:21:09;;;;;;;7.90;4.85;;;24.00;27.30;;;;;;4872905;29;38272;-77
2023/06/23 08:23:35;;;;;;;11.57;6.60;;;23.90;48.30;;;;;;4854599;29;39667;-78
2023/06/23 08:26:02;;;;;;;7.80;4.80;;;23.80;30.50;;;;;;4874424;29;37924;-80
2023/06/23 08:28:28;;;;;;;9.30;4.43;;;23.90;50.20;;;;;;4875115;29;37862;-77
2023/06/23 08:30:55;;;;;;;5.45;4.10;;;23.90;26.20;;;;;;4856636;29;38010;-77
2023/06/23 08:33:22;;;;;;;8.32;5.70;;;24.10;10.30;;;;;;4858057;29;40584;-77
2023/06/23 08:35:48;;;;;;;5.25;4.75;;;24.00;24.10;;;;;;4858693;29;39514;-78
2023/06/23 08:38:16;;;;;;;5.40;4.05;;;24.20;34.40;;;;;;4857126;29;38776;-78
2023/06/23 08:40:42;;;;;;;13.52;6.90;;;24.50;31.20;;;;;;4875881;29;37358;-78
2023/06/23 08:43:11;;;;;;;8.20;5.30;;;24.90;11.40;;;;;;4874917;29;38548;-77
2023/06/23 08:45:43;;;;;;;10.00;5.47;;;24.70;15.00;;;;;;4856826;29;38652;-78
2023/06/23 08:48:09;;;;;;;;;;;24.80;10.40;;;;;;4874138;29;38791;-77
2023/06/23 08:50:36;;;;;;;5.65;4.22;;;24.90;6.40;;;;;;4880806;29;37629;-77
2023/06/23 08:53:05;;;;;;;5.95;4.47;;;25.00;5.60;;;;;;4858275;29;41266;-79
2023/06/23 08:55:32;;;;;;;5.93;4.05;;;25.20;1.00;;;;;;4858088;29;38985;-78
2023/06/23 08:58:02;;;;;;;4.43;4.03;;;25.20;16.70;;;;;;4854388;29;38249;-78
2023/06/23 09:00:29;;;;;;;4.28;3.58;;;25.40;1.00;;;;;;4857216;29;47292;-77
2023/06/23 09:02:56;;;;;;;5.47;3.47;;;25.50;1.00;;;;;;4856831;29;37896;-79
2023/06/23 09:05:22;;;;;;;3.22;2.92;;;25.60;1.00;;;;;;4857225;29;39455;-77
2023/06/23 09:07:49;;;;;;;4.28;3.13;;;25.80;1.00;;;;;;4856663;29;39221;-77
2023/06/23 09:10:16;;;;;;;3.97;3.10;;;25.90;1.00;;;;;;4855401;29;37636;-78
2023/06/23 09:13:10;;;;;;;3.08;2.53;;;26.00;1.00;;;;;;4874502;29;38430;-77
2023/06/23 09:15:37;;;;;;;2.90;2.30;;;25.80;1.00;;;;;;4856446;29;47155;-78
2023/06/23 09:18:05;;;;;;;3.58;2.35;;;25.90;1.00;;;;;;4856379;29;38718;-79
2023/06/23 09:20:31;;;;;;;3.63;2.20;;;26.00;1.00;;;;;;4856525;29;38655;-78
2023/06/23 09:22:58;;;;;;;2.80;2.42;;;26.00;1.00;;;;;;4856011;29;39074;-78
2023/06/23 09:25:41;;;;;;;4.15;2.38;;;26.20;1.00;;;;;;4858052;29;38575;-79
2023/06/23 09:28:19;;;;;;;3.20;2.40;;;26.10;1.00;;;;;;4860473;29;39650;-77
2023/06/23 09:30:45;;;;;;;2.83;2.45;;;26.10;1.00;;;;;;4850342;29;37802;-79
2023/06/23 09:33:12;;;;;;;3.75;2.78;;;26.20;1.00;;;;;;4859783;29;39445;-77
2023/06/23 09:35:46;;;;;;;6.18;3.08;;;26.30;1.00;;;;;;4877770;29;39378;-78
2023/06/23 09:38:13;;;;;;;3.75;2.60;;;26.40;1.00;;;;;;4852465;29;38423;-79
2023/06/23 09:40:39;;;;;;;4.00;2.22;;;26.70;1.00;;;;;;4851270;29;38734;-78
2023/06/23 09:43:05;;;;;;;3.33;2.05;;;26.60;1.00;;;;;;4858068;29;39162;-79
2023/06/23 09:45:33;;;;;;;3.08;2.00;;;26.40;1.00;;;;;;4866048;29;40017;-79
2023/06/23 09:47:59;;;;;;;2.95;2.20;;;26.30;1.00;;;;;;4856625;29;38532;-77
2023/06/23 09:50:27;;;;;;;2.78;2.22;;;26.20;1.00;;;;;;4860923;29;36199;-79
2023/06/23 09:53:01;;;;;;;2.33;2.13;;;26.30;1.00;;;;;;4856992;29;40427;-79
2023/06/23 09:55:30;;;;;;;4.25;2.20;;;26.70;1.00;;;;;;4855294;29;46925;-78
2023/06/23 09:57:57;;;;;;;4.22;2.60;;;26.80;1.00;;;;;;4858425;29;39861;-79
2023/06/23 10:00:30;;;;;;;3.00;2.15;;;26.90;1.00;;;;;;4855257;29;38900;-79
2023/06/23 10:03:00;;;;;;;3.58;2.25;;;26.90;1.00;;;;;;4855976;29;39713;-77
2023/06/23 10:05:34;;;;;;;5.10;3.08;;;27.00;1.00;;;;;;4856616;29;37587;-80
2023/06/23 10:08:12;;;;;;;2.30;2.10;;;27.20;99.90;;;;;;4857797;29;37253;-78
2023/06/23 10:10:46;;;;;;;2.92;2.50;;;27.30;1.00;;;;;;4849370;29;47157;-77
2023/06/23 10:13:12;;;;;;;6.55;2.72;;;27.30;1.00;;;;;;4856504;29;37783;-79
2023/06/23 10:15:41;;;;;;;3.28;2.40;;;27.50;2.80;;;;;;4856726;29;37025;-77
2023/06/23 10:18:10;;;;;;;4.03;2.50;;;27.20;1.00;;;;;;4874540;29;38541;-77
2023/06/23 10:20:36;;;;;;;3.42;2.40;;;27.20;1.00;;;;;;4854597;29;36850;-78
2023/06/23 10:23:03;;;;;;;3.55;2.40;;;27.50;99.90;;;;;;4850476;29;39758;-80
2023/06/23 10:25:30;;;;;;;2.55;2.00;;;27.50;1.00;;;;;;4854187;29;39130;-79
2023/06/23 10:27:59;;;;;;;4.30;2.22;;;27.70;99.90;;;;;;4864877;29;37562;-78
2023/06/23 10:30:29;;;;;;;4.32;2.78;;;27.70;99.90;;;;;;4854386;29;39476;-77
2023/06/23 10:32:57;;;;;;;7.65;2.95;;;27.10;1.00;;;;;;4845337;29;40597;-78
2023/06/23 10:35:24;;;;;;;4.70;2.88;;;27.30;1.00;;;;;;4863682;29;37540;-78
2023/06/23 10:38:02;;;;;;;5.75;2.83;;;27.70;1.00;;;;;;4855320;29;37263;-77
2023/06/23 10:40:30;;;;;;;4.07;2.38;;;27.80;99.90;;;;;;4856237;29;47207;-79
2023/06/23 10:42:56;;;;;;;3.20;2.45;;;27.70;1.00;;;;;;4855387;29;40492;-76
2023/06/23 10:45:22;;;;;;;5.68;2.58;;;27.70;31.00;;;;;;4862725;29;40120;-78
2023/06/23 10:47:49;;;;;;;2.95;2.58;;;27.70;1.00;;;;;;4856405;29;38836;-79
2023/06/23 10:50:15;;;;;;;3.70;2.38;;;27.80;1.00;;;;;;4856820;29;37800;-78
2023/06/23 10:52:42;;;;;;;5.35;2.70;;;27.90;1.00;;;;;;4871662;29;38576;-78
2023/06/23 10:55:33;;;;;;;4.70;3.13;;;28.10;99.90;;;;;;4854961;29;37494;-78
2023/06/23 10:58:09;;;;;;;7.15;3.85;;;28.10;23.30;;;;;;4873866;29;38944;-78
2023/06/23 11:00:36;;;;;;;3.67;2.60;;;27.90;99.90;;;;;;4860843;29;48168;-77
2023/06/23 11:03:08;;;;;;;5.03;3.20;;;28.00;1.00;;;;;;4854386;29;40882;-79
2023/06/23 11:05:42;;;;;;;6.47;3.40;;;28.00;1.00;;;;;;4855942;29;39240;-78
2023/06/23 11:08:12;;;;;;;5.30;3.17;;;27.70;99.90;;;;;;4864537;29;38824;-78
2023/06/23 11:10:50;;;;;;;7.75;2.83;;;27.80;1.00;;;;;;4857077;29;38006;-77
2023/06/23 11:13:16;;;;;;;5.88;2.70;;;27.90;1.00;;;;;;4853463;29;40518;-78
2023/06/23 11:15:59;;;;;;;3.05;2.45;;;28.00;99.90;;;;;;4856042;29;38926;-78
2023/06/23 11:18:26;;;;;;;3.70;2.58;;;28.30;1.00;;;;;;4853236;29;39689;-78
2023/06/23 11:20:54;;;;;;;3.20;2.47;;;28.30;1.00;;;;;;4854033;29;38462;-78
2023/06/23 11:23:20;;;;;;;4.38;3.40;;;28.40;34.00;;;;;;4850683;29;37501;-81
2023/06/23 11:25:49;;;;;;;3.58;2.92;;;28.30;1.00;;;;;;4845697;29;40231;-79
2023/06/23 11:28:33;;;;;;;4.45;3.40;;;28.30;1.00;;;;;;4847974;29;38876;-79
2023/06/23 11:31:03;;;;;;;10.45;4.00;;;28.50;99.90;;;;;;4873527;29;37235;-79
2023/06/23 11:33:34;;;;;;;6.43;3.78;;;28.50;99.90;;;;;;4857376;29;47112;-79
2023/06/23 11:36:20;;;;;;;3.90;3.47;;;28.50;99.90;;;;;;4858023;29;40030;-78
2023/06/23 11:38:46;;;;;;;7.50;3.63;;;28.70;1.00;;;;;;4849190;29;47285;-78
2023/06/23 11:41:14;;;;;;;5.47;3.92;;;28.70;1.00;;;;;;4873354;29;38204;-79
2023/06/23 11:43:45;;;;;;;10.32;4.65;;;28.60;1.00;;;;;;4860955;29;39402;-78
2023/06/23 11:46:13;;;;;;;5.93;5.13;;;28.40;99.90;;;;;;4866743;29;37536;-80
2023/06/23 11:48:40;;;;;;;5.78;4.53;;;28.60;99.90;;;;;;4858881;29;37228;-79
2023/06/23 11:51:11;;;;;;;6.55;4.50;;;28.30;1.00;;;;;;4853292;29;37025;-79
2023/06/23 11:53:41;;;;;;;5.55;4.50;;;28.30;1.00;;;;;;4847972;29;38196;-80
2023/06/23 11:56:09;;;;;;;7.13;4.85;;;28.40;1.00;;;;;;4863180;29;39194;-78
2023/06/23 11:58:35;;;;;;;5.47;4.57;;;28.00;1.00;;;;;;4871914;29;38687;-80
2023/06/23 12:01:04;;;;;;;8.63;4.75;;;27.80;1.00;;;;;;4875980;29;37632;-80
2023/06/23 12:03:35;;;;;;;7.57;4.88;;;27.90;1.00;;;;;;4873968;29;38436;-78
2023/06/23 12:06:01;;;;;;;5.28;4.40;;;28.00;1.00;;;;;;4849170;29;37813;-79
2023/06/23 12:08:28;;;;;;;5.15;4.63;;;28.20;1.00;;;;;;4847994;29;47489;-79
2023/06/23 12:10:55;;;;;;;7.80;4.13;;;28.30;99.90;;;;;;4870635;29;38024;-79
2023/06/23 12:13:22;;;;;;;5.72;3.95;;;28.10;99.90;;;;;;4851706;29;39296;-79
2023/06/23 12:15:48;;;;;;;3.28;2.60;;;28.30;1.00;;;;;;4879161;29;39164;-79
2023/06/23 12:18:14;;;;;;;4.22;3.08;;;28.60;1.00;;;;;;4866433;29;38599;-80
2023/06/23 12:20:42;;;;;;;8.32;3.50;;;28.70;99.90;;;;;;4856223;29;37746;-80
2023/06/23 12:23:14;;;;;;;3.70;3.30;;;28.60;1.00;;;;;;4852039;29;39007;-79
2023/06/23 12:25:45;;;;;;;3.20;2.83;;;28.60;99.90;;;;;;4853618;29;37260;-78
2023/06/23 12:28:13;;;;;;;4.60;3.55;;;28.60;99.90;;;;;;4852878;29;36503;-80
2023/06/23 12:30:41;;;;;;;3.78;3.30;;;28.60;96.20;;;;;;4845411;29;35860;-78
2023/06/23 12:33:21;;;;;;;3.65;3.03;;;28.60;99.90;;;;;;4844408;29;39448;-81
2023/06/23 12:36:17;;;;;;;6.60;3.28;;;28.70;1.00;;;;;;4852100;29;37365;-80
2023/06/23 12:38:44;;;;;;;9.57;3.30;;;28.80;99.90;;;;;;4834790;29;47309;-78
2023/06/23 12:41:17;;;;;;;3.55;2.92;;;28.80;1.00;;;;;;4854638;29;36520;-78
2023/06/23 12:43:44;;;;;;;4.43;3.35;;;28.80;1.00;;;;;;4857361;29;37723;-80
2023/06/23 12:46:11;;;;;;;5.43;3.45;;;28.80;99.90;;;;;;4864785;29;38187;-79
2023/06/23 12:48:39;;;;;;;3.90;3.33;;;28.40;1.00;;;;;;4853969;29;37970;-81
2023/06/23 12:51:08;;;;;;;5.68;2.17;;;28.20;99.90;;;;;;4850299;29;34542;-81
2023/06/23 12:53:35;;;;;;;3.65;2.88;;;28.30;99.90;;;;;;4846306;29;38038;-80